createdAt,value
2017-06-11T00:01:43.116Z,13.50
2017-06-11T00:04:11.559Z,13.40
2017-06-11T00:06:39.986Z,13.50
2017-06-11T00:09:08.421Z,13.50
2017-06-11T00:11:36.930Z,13.50
2017-06-11T00:14:06.134Z,13.30
2017-06-11T00:16:35.460Z,13.20
2017-06-11T00:19:03.887Z,13.10
2017-06-11T00:21:32.364Z,13.20
2017-06-11T00:24:00.767Z,13.10
2017-06-11T00:26:29.967Z,13.20
2017-06-11T00:28:59.186Z,13.20
2017-06-11T00:31:27.642Z,13.10
2017-06-11T00:33:56.054Z,13.10
2017-06-11T00:36:24.484Z,13.00
2017-06-11T00:38:52.921Z,13.00
2017-06-11T00:41:21.465Z,12.90
2017-06-11T00:43:49.912Z,13.10
2017-06-11T00:46:18.350Z,13.10
2017-06-11T00:48:46.812Z,13.00
2017-06-11T00:51:15.234Z,13.00
2017-06-11T00:53:43.760Z,13.00
2017-06-11T00:56:12.191Z,13.00
2017-06-11T00:58:40.692Z,12.90
2017-06-11T01:01:09.126Z,13.00
2017-06-11T01:03:37.583Z,13.00
2017-06-11T01:06:06.011Z,13.00
2017-06-11T01:08:34.459Z,12.90
2017-06-11T01:11:03.003Z,12.80
2017-06-11T01:13:31.415Z,12.70
2017-06-11T01:15:59.885Z,12.70
2017-06-11T01:18:29.106Z,12.60
2017-06-11T01:20:57.600Z,12.60
2017-06-11T01:23:26.138Z,12.60
2017-06-11T01:25:54.567Z,12.50
2017-06-11T01:28:23.767Z,12.40
2017-06-11T01:30:52.966Z,12.40
2017-06-11T01:33:21.407Z,12.30
2017-06-11T01:35:49.842Z,12.40
2017-06-11T01:38:18.732Z,12.30
2017-06-11T01:40:47.920Z,12.40
2017-06-11T01:43:17.124Z,12.40
2017-06-11T01:45:46.347Z,12.30
2017-06-11T01:48:14.878Z,12.30
2017-06-11T01:50:43.330Z,12.30
2017-06-11T01:53:11.776Z,12.30
2017-06-11T01:55:40.984Z,12.40
2017-06-11T01:58:09.458Z,12.30
2017-06-11T02:00:38.655Z,12.30
2017-06-11T02:03:07.842Z,12.30
2017-06-11T02:05:37.052Z,12.20
2017-06-11T02:08:06.248Z,12.20
2017-06-11T02:10:35.560Z,12.20
2017-06-11T02:13:04.668Z,12.10
2017-06-11T02:15:33.134Z,12.20
2017-06-11T02:18:02.311Z,12.10
2017-06-11T02:20:30.788Z,12.10
2017-06-11T02:22:59.437Z,12.10
2017-06-11T02:25:27.927Z,12.10
2017-06-11T02:27:56.342Z,12.10
2017-06-11T02:30:24.790Z,12.10
2017-06-11T02:32:53.269Z,12.00
2017-06-11T02:35:21.768Z,11.90
2017-06-11T02:37:50.204Z,11.80
2017-06-11T02:40:18.628Z,11.90
2017-06-11T02:42:47.055Z,11.80
2017-06-11T02:45:16.238Z,11.90
2017-06-11T02:47:44.656Z,11.80
2017-06-11T02:50:13.095Z,11.80
2017-06-11T02:52:41.527Z,11.80
2017-06-11T02:55:09.979Z,11.80
2017-06-11T02:57:39.171Z,11.90
2017-06-11T03:00:08.357Z,11.80
2017-06-11T03:02:36.803Z,11.80
2017-06-11T03:05:05.255Z,11.80
2017-06-11T03:07:33.689Z,11.70
2017-06-11T03:10:02.112Z,11.80
2017-06-11T03:12:31.338Z,11.80
2017-06-11T03:14:59.759Z,11.70
2017-06-11T03:17:28.175Z,11.70
2017-06-11T03:19:56.615Z,11.70
2017-06-11T03:22:25.031Z,11.70
2017-06-11T03:24:54.229Z,11.70
2017-06-11T03:27:23.534Z,11.60
2017-06-11T03:29:52.046Z,11.60
2017-06-11T03:32:20.471Z,11.70
2017-06-11T03:34:48.903Z,11.70
2017-06-11T03:37:17.362Z,11.70
2017-06-11T03:39:45.819Z,11.70
2017-06-11T03:42:16.663Z,11.70
2017-06-11T03:44:45.859Z,11.70
2017-06-11T03:47:14.975Z,11.60
2017-06-11T03:49:44.179Z,11.70
2017-06-11T03:52:12.596Z,11.60
2017-06-11T03:54:41.035Z,11.70
2017-06-11T03:57:10.231Z,11.70
2017-06-11T03:59:39.455Z,11.70
2017-06-11T04:02:07.890Z,11.60
2017-06-11T04:04:36.342Z,11.60
2017-06-11T04:07:04.862Z,11.60
2017-06-11T04:09:33.276Z,11.70
2017-06-11T04:12:01.779Z,11.70
2017-06-11T04:14:30.335Z,11.70
2017-06-11T04:16:59.530Z,11.80
2017-06-11T04:19:27.960Z,11.80
2017-06-11T04:21:56.502Z,11.90
2017-06-11T04:24:25.811Z,12.00
2017-06-11T04:26:54.227Z,12.00
2017-06-11T04:29:22.671Z,12.10
2017-06-11T04:31:51.174Z,12.10
2017-06-11T04:34:19.579Z,12.20
2017-06-11T04:36:48.208Z,12.30
2017-06-11T04:39:17.555Z,12.50
2017-06-11T04:41:45.990Z,12.40
2017-06-11T04:44:15.254Z,12.60
2017-06-11T04:46:43.744Z,12.60
2017-06-11T04:49:12.175Z,12.70
2017-06-11T04:51:40.603Z,12.80
2017-06-11T04:54:09.023Z,12.90
2017-06-11T04:56:37.467Z,13.10
2017-06-11T04:59:05.888Z,13.30
2017-06-11T05:01:34.303Z,13.40
2017-06-11T05:04:02.750Z,13.60
2017-06-11T05:06:31.206Z,13.70
2017-06-11T05:08:59.642Z,13.90
2017-06-11T05:11:28.071Z,14.00
2017-06-11T05:13:57.540Z,14.20
2017-06-11T05:16:25.980Z,14.20
2017-06-11T05:18:54.415Z,14.30
2017-06-11T05:21:22.860Z,14.40
2017-06-11T05:23:51.298Z,14.50
2017-06-11T05:26:19.907Z,14.60
2017-06-11T05:28:48.339Z,14.70
2017-06-11T05:31:16.780Z,14.80
2017-06-11T05:33:45.211Z,14.90
2017-06-11T05:36:13.647Z,15.00
2017-06-11T05:38:43.524Z,15.20
2017-06-11T05:41:11.946Z,15.20
2017-06-11T05:43:40.190Z,15.30
2017-06-11T05:46:09.383Z,15.50
2017-06-11T05:48:37.899Z,15.40
2017-06-11T05:51:06.347Z,15.60
2017-06-11T05:53:34.785Z,15.70
2017-06-11T05:56:03.227Z,15.80
2017-06-11T05:58:32.418Z,15.90
2017-06-11T06:01:01.719Z,16.00
2017-06-11T06:03:30.920Z,16.10
2017-06-11T06:06:00.123Z,16.20
2017-06-11T06:08:28.562Z,16.10
2017-06-11T06:10:56.987Z,16.30
2017-06-11T06:13:26.224Z,16.60
2017-06-11T06:15:54.655Z,16.50
2017-06-11T06:18:23.883Z,16.70
2017-06-11T06:20:52.306Z,16.70
2017-06-11T06:23:20.756Z,16.80
2017-06-11T06:25:49.187Z,17.00
2017-06-11T06:28:17.734Z,17.00
2017-06-11T06:30:46.214Z,17.10
2017-06-11T06:33:14.638Z,17.20
2017-06-11T06:35:42.894Z,17.30
2017-06-11T06:38:11.339Z,17.50
2017-06-11T06:40:39.759Z,17.50
2017-06-11T06:43:08.304Z,17.40
2017-06-11T06:45:36.734Z,17.50
2017-06-11T06:48:05.151Z,17.60
2017-06-11T06:50:34.351Z,17.80
2017-06-11T06:53:02.791Z,17.80
2017-06-11T06:55:31.243Z,18.00
2017-06-11T06:57:59.659Z,18.00
2017-06-11T07:00:28.085Z,18.00
2017-06-11T07:02:56.522Z,18.10
2017-06-11T07:05:24.943Z,18.30
2017-06-11T07:07:53.374Z,18.40
2017-06-11T07:10:22.003Z,18.70
2017-06-11T07:12:51.223Z,18.80
2017-06-11T07:15:19.664Z,18.70
2017-06-11T07:17:48.088Z,18.80
2017-06-11T07:20:16.511Z,18.90
2017-06-11T07:22:44.964Z,18.90
2017-06-11T07:25:13.519Z,19.00
2017-06-11T07:27:41.965Z,19.20
2017-06-11T07:30:10.391Z,19.30
2017-06-11T07:32:38.827Z,19.40
2017-06-11T07:35:07.271Z,19.60
2017-06-11T07:37:35.703Z,19.70
2017-06-11T07:40:04.830Z,19.70
2017-06-11T07:42:33.312Z,19.90
2017-06-11T07:45:01.800Z,19.90
2017-06-11T07:47:30.204Z,20.00
2017-06-11T07:49:58.647Z,20.00
2017-06-11T07:52:27.086Z,20.20
2017-06-11T07:54:55.512Z,20.30
2017-06-11T07:57:23.948Z,20.40
2017-06-11T07:59:52.380Z,20.50
2017-06-11T08:02:20.828Z,20.60
2017-06-11T08:04:49.312Z,20.70
2017-06-11T08:07:18.596Z,20.80
2017-06-11T08:09:47.055Z,20.70
2017-06-11T08:12:15.472Z,20.90
2017-06-11T08:14:43.999Z,21.00
2017-06-11T08:17:12.508Z,21.10
2017-06-11T08:19:40.949Z,21.10
2017-06-11T08:22:10.146Z,21.20
2017-06-11T08:24:38.578Z,21.10
2017-06-11T08:27:07.059Z,21.20
2017-06-11T08:29:35.494Z,21.40
2017-06-11T08:32:03.931Z,21.50
2017-06-11T08:34:32.371Z,21.50
2017-06-11T08:37:00.799Z,21.60
2017-06-11T08:39:29.231Z,21.60
2017-06-11T08:41:57.391Z,21.50
2017-06-11T08:44:26.590Z,21.90
2017-06-11T08:46:55.805Z,22.00
2017-06-11T08:49:24.236Z,22.00
2017-06-11T08:51:52.680Z,22.00
2017-06-11T08:54:21.271Z,21.90
2017-06-11T08:56:49.783Z,22.00
2017-06-11T08:59:18.367Z,22.20
2017-06-11T09:01:46.838Z,22.40
2017-06-11T09:04:15.279Z,22.70
2017-06-11T09:06:43.710Z,22.70
2017-06-11T09:09:12.163Z,22.70
2017-06-11T09:11:40.591Z,22.90
2017-06-11T09:14:09.115Z,23.00
2017-06-11T09:16:37.531Z,23.00
2017-06-11T09:19:05.960Z,23.10
2017-06-11T09:21:34.492Z,23.20
2017-06-11T09:24:02.931Z,23.40
2017-06-11T09:26:31.383Z,23.50
2017-06-11T09:28:59.840Z,23.20
2017-06-11T09:31:28.285Z,23.30
2017-06-11T09:33:56.711Z,23.60
2017-06-11T09:36:25.147Z,23.70
2017-06-11T09:38:53.584Z,23.60
2017-06-11T09:41:22.030Z,23.70
2017-06-11T09:43:50.464Z,23.80
2017-06-11T09:46:18.897Z,23.90
2017-06-11T09:48:48.124Z,23.90
2017-06-11T09:51:16.568Z,23.70
2017-06-11T09:53:44.999Z,23.90
2017-06-11T09:56:13.414Z,24.00
2017-06-11T09:58:42.527Z,24.20
2017-06-11T10:01:11.002Z,24.30
2017-06-11T10:03:39.414Z,24.30
2017-06-11T10:06:07.883Z,24.20
2017-06-11T10:08:36.317Z,24.30
2017-06-11T10:11:04.754Z,24.50
2017-06-11T10:13:33.193Z,24.50
2017-06-11T10:16:01.644Z,24.40
2017-06-11T10:18:30.099Z,24.80
2017-06-11T10:20:58.516Z,24.90
2017-06-11T10:23:26.971Z,24.80
2017-06-11T10:25:55.432Z,25.00
2017-06-11T10:28:23.987Z,25.30
2017-06-11T10:30:52.414Z,25.30
2017-06-11T10:33:20.852Z,25.30
2017-06-11T10:35:49.279Z,25.60
2017-06-11T10:38:17.717Z,25.70
2017-06-11T10:40:46.292Z,26.00
2017-06-11T10:43:14.723Z,26.10
2017-06-11T10:45:43.136Z,26.30
2017-06-11T10:48:11.582Z,26.20
2017-06-11T10:50:40.033Z,26.30
2017-06-11T10:53:08.445Z,26.20
2017-06-11T10:55:36.885Z,25.90
2017-06-11T10:58:05.327Z,25.80
2017-06-11T11:00:33.751Z,25.90
2017-06-11T11:03:02.176Z,26.20
2017-06-11T11:05:30.695Z,26.50
2017-06-11T11:07:59.133Z,26.50
2017-06-11T11:10:27.551Z,26.50
2017-06-11T11:12:56.014Z,26.30
2017-06-11T11:15:24.423Z,26.30
2017-06-11T11:17:52.864Z,26.40
2017-06-11T11:20:21.300Z,26.80
2017-06-11T11:22:49.746Z,26.90
2017-06-11T11:25:18.226Z,27.20
2017-06-11T11:27:46.663Z,27.20
2017-06-11T11:30:15.102Z,27.40
2017-06-11T11:32:43.547Z,27.50
2017-06-11T11:35:11.996Z,27.70
2017-06-11T11:37:40.420Z,27.80
2017-06-11T11:40:08.871Z,27.70
2017-06-11T11:42:37.283Z,27.80
2017-06-11T11:45:05.715Z,27.70
2017-06-11T11:47:34.178Z,28.00
2017-06-11T11:50:02.592Z,27.80
2017-06-11T11:52:31.060Z,27.80
2017-06-11T11:54:59.491Z,27.70
2017-06-11T11:57:27.927Z,27.70
2017-06-11T11:59:56.378Z,28.00
2017-06-11T12:02:24.838Z,28.00
2017-06-11T12:04:53.259Z,28.20
2017-06-11T12:07:21.715Z,28.70
2017-06-11T12:09:50.137Z,28.60
2017-06-11T12:12:18.559Z,28.60
2017-06-11T12:14:46.995Z,28.80
2017-06-11T12:17:15.422Z,28.80
2017-06-11T12:19:43.873Z,28.80
2017-06-11T12:22:12.322Z,28.70
2017-06-11T12:24:40.753Z,28.60
2017-06-11T12:27:09.188Z,28.70
2017-06-11T12:29:37.618Z,28.70
2017-06-11T12:32:06.130Z,29.10
2017-06-11T12:34:34.567Z,29.20
2017-06-11T12:37:02.999Z,29.20
2017-06-11T12:39:31.439Z,29.60
2017-06-11T12:41:59.879Z,29.60
2017-06-11T12:44:28.360Z,30.00
2017-06-11T12:46:56.803Z,30.20
2017-06-11T12:49:25.251Z,30.40
2017-06-11T12:51:53.687Z,30.40
2017-06-11T12:54:22.103Z,30.60
2017-06-11T12:56:50.564Z,30.90
2017-06-11T12:59:18.995Z,31.00
2017-06-11T13:01:47.469Z,31.30
2017-06-11T13:04:15.915Z,31.30
2017-06-11T13:06:44.388Z,31.60
2017-06-11T13:09:12.823Z,31.50
2017-06-11T13:11:41.261Z,31.50
2017-06-11T13:14:09.719Z,31.50
2017-06-11T13:16:38.150Z,31.70
2017-06-11T13:19:06.695Z,31.80
2017-06-11T13:21:35.151Z,31.90
2017-06-11T13:24:03.583Z,32.10
2017-06-11T13:26:32.003Z,32.10
2017-06-11T13:29:00.460Z,32.10
2017-06-11T13:31:28.955Z,32.00
2017-06-11T13:33:57.386Z,32.00
2017-06-11T13:36:25.843Z,32.40
2017-06-11T13:38:54.258Z,32.40
2017-06-11T13:41:22.711Z,32.40
2017-06-11T13:43:51.156Z,32.10
2017-06-11T13:46:19.583Z,32.50
2017-06-11T13:48:48.039Z,32.80
2017-06-11T13:51:16.480Z,32.80
2017-06-11T13:53:44.904Z,32.80
2017-06-11T13:56:14.019Z,32.90
2017-06-11T13:58:42.578Z,33.00
2017-06-11T14:01:11.007Z,32.90
2017-06-11T14:03:39.453Z,33.00
2017-06-11T14:06:07.876Z,32.80
2017-06-11T14:08:36.388Z,32.70
2017-06-11T14:11:04.835Z,32.80
2017-06-11T14:13:33.098Z,33.00
2017-06-11T14:16:01.559Z,33.10
2017-06-11T14:18:29.990Z,33.30
2017-06-11T14:20:58.247Z,33.50
2017-06-11T14:23:26.476Z,33.20
2017-06-11T14:25:54.716Z,33.00
2017-06-11T14:28:23.000Z,32.80
2017-06-11T14:30:51.447Z,32.70
2017-06-11T14:33:19.893Z,33.10
2017-06-11T14:35:48.331Z,32.90
2017-06-11T14:38:16.784Z,33.30
2017-06-11T14:40:45.216Z,33.50
2017-06-11T14:43:13.675Z,33.70
2017-06-11T14:45:42.113Z,34.00
2017-06-11T14:48:10.551Z,34.40
2017-06-11T14:50:38.991Z,34.30
2017-06-11T14:53:07.435Z,33.80
2017-06-11T14:55:35.891Z,33.80
2017-06-11T14:58:04.330Z,33.40
2017-06-11T15:00:32.811Z,32.90
2017-06-11T15:03:01.239Z,33.10
2017-06-11T15:05:29.691Z,33.30
2017-06-11T15:07:58.112Z,33.20
2017-06-11T15:10:26.623Z,32.70
2017-06-11T15:12:55.144Z,32.60
2017-06-11T15:15:23.571Z,32.80
2017-06-11T15:17:51.994Z,33.10
2017-06-11T15:20:20.467Z,33.60
2017-06-11T15:22:48.901Z,33.80
2017-06-11T15:25:17.339Z,34.00
2017-06-11T15:27:45.788Z,34.00
2017-06-11T15:30:14.211Z,33.90
2017-06-11T15:32:42.745Z,34.00
2017-06-11T15:35:11.186Z,33.80
2017-06-11T15:37:39.623Z,33.50
2017-06-11T15:40:08.063Z,33.70
2017-06-11T15:42:36.560Z,34.00
2017-06-11T15:45:05.004Z,34.10
2017-06-11T15:47:33.416Z,34.50
2017-06-11T15:50:01.863Z,34.30
2017-06-11T15:52:30.288Z,34.60
2017-06-11T15:54:58.731Z,34.70
2017-06-11T15:57:27.162Z,35.00
2017-06-11T15:59:55.599Z,34.50
2017-06-11T16:02:24.109Z,33.70
2017-06-11T16:04:52.530Z,33.30
2017-06-11T16:07:20.998Z,32.90
2017-06-11T16:09:49.439Z,32.20
2017-06-11T16:12:17.890Z,31.90
2017-06-11T16:14:46.359Z,31.80
2017-06-11T16:17:14.776Z,31.70
2017-06-11T16:19:43.308Z,32.00
2017-06-11T16:22:11.747Z,30.90
2017-06-11T16:24:40.154Z,30.80
2017-06-11T16:27:08.611Z,30.90
2017-06-11T16:29:37.059Z,30.90
2017-06-11T16:32:05.511Z,30.80
2017-06-11T16:34:34.011Z,30.60
2017-06-11T16:37:02.457Z,30.50
2017-06-11T16:39:30.897Z,30.40
2017-06-11T16:42:00.014Z,30.20
2017-06-11T16:44:28.472Z,30.20
2017-06-11T16:46:56.901Z,30.10
2017-06-11T16:49:25.334Z,30.00
2017-06-11T16:51:53.781Z,29.90
2017-06-11T16:54:22.223Z,29.80
2017-06-11T16:56:50.733Z,29.80
2017-06-11T16:59:19.199Z,29.70
2017-06-11T17:01:47.643Z,29.50
2017-06-11T17:04:16.066Z,29.40
2017-06-11T17:06:44.516Z,29.10
2017-06-11T17:09:12.949Z,29.10
2017-06-11T17:11:41.378Z,28.90
2017-06-11T17:14:09.840Z,28.70
2017-06-11T17:16:38.287Z,28.20
2017-06-11T17:19:06.749Z,27.90
2017-06-11T17:21:35.170Z,27.80
2017-06-11T17:24:03.639Z,27.60
2017-06-11T17:26:32.114Z,27.50
2017-06-11T17:29:00.585Z,27.40
2017-06-11T17:31:29.014Z,27.40
2017-06-11T17:33:57.468Z,27.60
2017-06-11T17:36:25.899Z,27.50
2017-06-11T17:38:54.336Z,27.80
2017-06-11T17:41:23.176Z,28.40
2017-06-11T17:43:51.640Z,28.80
2017-06-11T17:46:20.075Z,28.80
2017-06-11T17:48:48.522Z,28.60
2017-06-11T17:51:16.986Z,28.50
2017-06-11T17:53:45.406Z,28.40
2017-06-11T17:56:13.850Z,28.30
2017-06-11T17:58:42.285Z,28.10
2017-06-11T18:01:10.718Z,28.00
2017-06-11T18:03:39.159Z,28.30
2017-06-11T18:06:07.603Z,28.30
2017-06-11T18:08:36.070Z,28.50
2017-06-11T18:11:04.504Z,28.50
2017-06-11T18:13:32.961Z,28.50
2017-06-11T18:16:01.425Z,28.40
2017-06-11T18:18:29.876Z,28.40
2017-06-11T18:20:58.296Z,28.30
2017-06-11T18:23:26.755Z,28.20
2017-06-11T18:25:55.196Z,28.20
2017-06-11T18:28:23.614Z,28.20
2017-06-11T18:30:52.084Z,28.00
2017-06-11T18:33:20.527Z,27.80
2017-06-11T18:35:48.987Z,27.70
2017-06-11T18:38:17.451Z,27.60
2017-06-11T18:40:45.889Z,27.40
2017-06-11T18:43:14.320Z,27.20
2017-06-11T18:45:42.786Z,27.00
2017-06-11T18:48:11.209Z,26.80
2017-06-11T18:50:39.659Z,26.60
2017-06-11T18:53:08.094Z,26.50
2017-06-11T18:55:36.552Z,26.60
2017-06-11T18:58:05.024Z,26.50
2017-06-11T19:00:33.471Z,26.40
2017-06-11T19:03:01.922Z,26.20
2017-06-11T19:05:30.379Z,25.80
2017-06-11T19:07:58.811Z,25.50
2017-06-11T19:10:27.307Z,25.50
2017-06-11T19:12:55.758Z,25.40
2017-06-11T19:15:24.197Z,25.20
2017-06-11T19:17:52.719Z,25.00
2017-06-11T19:20:21.162Z,24.90
2017-06-11T19:22:49.624Z,24.90
2017-06-11T19:25:18.090Z,24.90
2017-06-11T19:27:47.308Z,24.70
2017-06-11T19:30:15.741Z,24.60
2017-06-11T19:32:44.162Z,24.40
2017-06-11T19:35:12.652Z,24.40
2017-06-11T19:37:41.079Z,24.40
2017-06-11T19:40:09.358Z,24.10
2017-06-11T19:42:38.606Z,24.10
2017-06-11T19:45:07.042Z,23.90
2017-06-11T19:47:35.676Z,23.80
2017-06-11T19:50:04.118Z,23.70
2017-06-11T19:52:32.640Z,23.60
2017-06-11T19:55:01.091Z,23.60
2017-06-11T19:57:30.314Z,23.60
2017-06-11T19:59:58.783Z,23.70
2017-06-11T20:02:28.104Z,23.70
2017-06-11T20:04:56.551Z,23.70
2017-06-11T20:07:25.075Z,23.70
2017-06-11T20:09:53.568Z,23.70
2017-06-11T20:12:22.835Z,23.80
2017-06-11T20:14:52.069Z,23.80
2017-06-11T20:17:20.591Z,23.70
2017-06-11T20:19:49.022Z,23.70
2017-06-11T20:22:17.483Z,23.60
2017-06-11T20:24:46.674Z,23.70
2017-06-11T20:27:15.899Z,23.60
2017-06-11T20:29:44.371Z,23.60
2017-06-11T20:32:12.824Z,23.60
2017-06-11T20:34:41.274Z,23.30
2017-06-11T20:37:09.430Z,23.30
2017-06-11T20:39:37.872Z,23.20
2017-06-11T20:42:06.309Z,23.10
2017-06-11T20:44:34.768Z,23.00
2017-06-11T20:47:03.230Z,23.00
2017-06-11T20:49:32.441Z,23.00
2017-06-11T20:52:01.038Z,23.00
2017-06-11T20:54:29.482Z,22.90
2017-06-11T20:56:58.729Z,22.70
2017-06-11T20:59:27.167Z,22.50
2017-06-11T21:01:56.392Z,22.50
2017-06-11T21:04:24.823Z,22.50
2017-06-11T21:06:53.382Z,22.50
2017-06-11T21:09:21.855Z,22.40
2017-06-11T21:11:50.299Z,22.30
2017-06-11T21:14:19.508Z,22.30
2017-06-11T21:16:48.722Z,22.20
2017-06-11T21:19:17.217Z,22.20
2017-06-11T21:21:45.716Z,22.30
2017-06-11T21:24:14.151Z,22.30
2017-06-11T21:26:43.370Z,22.30
2017-06-11T21:29:11.826Z,22.30
2017-06-11T21:31:41.076Z,22.30
2017-06-11T21:34:09.684Z,22.20
2017-06-11T21:36:38.241Z,22.20
2017-06-11T21:39:06.678Z,22.30
2017-06-11T21:41:35.906Z,22.30
2017-06-11T21:44:04.343Z,22.30
2017-06-11T21:46:32.787Z,22.30
2017-06-11T21:49:01.221Z,22.30
2017-06-11T21:51:30.430Z,22.20
2017-06-11T21:53:59.328Z,22.30
2017-06-11T21:56:27.808Z,22.20
2017-06-11T21:58:56.416Z,22.30
2017-06-11T22:01:24.854Z,22.20
2017-06-11T22:03:53.278Z,22.00
2017-06-11T22:06:21.754Z,21.90
2017-06-11T22:08:50.191Z,21.70
2017-06-11T22:11:18.615Z,21.60
2017-06-11T22:13:47.064Z,21.60
2017-06-11T22:16:15.503Z,21.50
2017-06-11T22:18:43.958Z,21.50
2017-06-11T22:21:12.388Z,21.50
2017-06-11T22:23:40.834Z,21.50
2017-06-11T22:26:09.300Z,21.60
2017-06-11T22:28:37.754Z,21.70
2017-06-11T22:31:07.071Z,21.70
2017-06-11T22:33:35.527Z,21.60
2017-06-11T22:36:03.951Z,21.70
2017-06-11T22:38:32.388Z,21.70
2017-06-11T22:41:00.483Z,21.70
2017-06-11T22:43:29.698Z,21.60
2017-06-11T22:45:58.163Z,21.50
2017-06-11T22:48:27.382Z,21.20
2017-06-11T22:50:55.808Z,21.20
2017-06-11T22:53:24.260Z,21.10
2017-06-11T22:55:52.770Z,21.10
2017-06-11T22:58:21.223Z,20.90
2017-06-11T23:00:49.668Z,21.00
2017-06-11T23:03:18.888Z,21.00
2017-06-11T23:05:47.342Z,21.10
2017-06-11T23:08:16.550Z,21.10
2017-06-11T23:10:45.743Z,21.10
2017-06-11T23:13:14.964Z,21.10
2017-06-11T23:15:43.394Z,21.00
2017-06-11T23:18:11.856Z,21.00
2017-06-11T23:20:40.274Z,21.10
2017-06-11T23:23:08.694Z,21.10
2017-06-11T23:25:37.139Z,21.00
2017-06-11T23:28:06.351Z,20.90
2017-06-11T23:30:35.552Z,20.80
2017-06-11T23:33:04.749Z,20.60
2017-06-11T23:35:34.068Z,20.50
2017-06-11T23:38:02.492Z,20.40
2017-06-11T23:40:30.955Z,20.40
2017-06-11T23:42:59.394Z,20.30
2017-06-11T23:45:28.621Z,20.20
2017-06-11T23:47:57.071Z,20.20
2017-06-11T23:50:26.287Z,20.30
2017-06-11T23:52:54.726Z,20.30
2017-06-11T23:55:23.163Z,20.30
2017-06-11T23:57:51.642Z,20.30
